sensor_id;sensor_type;location;lat;lon;timestamp;P1;durP1;ratioP1;P2;durP2;ratioP2
9912;SDS011;41380;52.548;13.344;2022-07-29T00:00:25;4.47;;;3.60;;
9912;SDS011;41380;52.548;13.344;2022-07-29T00:02:52;6.18;;;3.88;;
9912;SDS011;41380;52.548;13.344;2022-07-29T00:05:19;4.35;;;3.58;;
9912;SDS011;41380;52.548;13.344;2022-07-29T00:07:48;5.72;;;3.95;;
9912;SDS011;41380;52.548;13.344;2022-07-29T00:10:14;6.35;;;4.47;;
9912;SDS011;41380;52.548;13.344;2022-07-29T00:12:41;7.35;;;4.57;;
9912;SDS011;41380;52.548;13.344;2022-07-29T00:15:08;5.35;;;4.03;;
9912;SDS011;41380;52.548;13.344;2022-07-29T00:17:36;7.22;;;4.50;;
9912;SDS011;41380;52.548;13.344;2022-07-29T00:20:03;6.03;;;4.05;;
9912;SDS011;41380;52.548;13.344;2022-07-29T00:22:31;5.32;;;3.75;;
9912;SDS011;41380;52.548;13.344;2022-07-29T00:24:59;6.70;;;4.25;;
9912;SDS011;41380;52.548;13.344;2022-07-29T00:27:27;7.30;;;4.35;;
9912;SDS011;41380;52.548;13.344;2022-07-29T00:29:53;7.90;;;4.03;;
9912;SDS011;41380;52.548;13.344;2022-07-29T00:32:20;7.65;;;4.20;;
9912;SDS011;41380;52.548;13.344;2022-07-29T00:34:47;5.20;;;4.55;;
9912;SDS011;41380;52.548;13.344;2022-07-29T00:37:31;5.75;;;4.28;;
9912;SDS011;41380;52.548;13.344;2022-07-29T00:40:00;5.75;;;3.97;;
9912;SDS011;41380;52.548;13.344;2022-07-29T00:42:27;6.15;;;4.28;;
9912;SDS011;41380;52.548;13.344;2022-07-29T00:44:54;6.90;;;4.38;;
9912;SDS011;41380;52.548;13.344;2022-07-29T00:47:22;7.85;;;4.47;;
9912;SDS011;41380;52.548;13.344;2022-07-29T00:49:49;6.80;;;4.75;;
9912;SDS011;41380;52.548;13.344;2022-07-29T00:52:16;6.43;;;4.35;;
9912;SDS011;41380;52.548;13.344;2022-07-29T00:54:43;5.53;;;3.95;;
9912;SDS011;41380;52.548;13.344;2022-07-29T00:57:11;7.40;;;4.60;;
9912;SDS011;41380;52.548;13.344;2022-07-29T00:59:39;6.95;;;4.40;;
9912;SDS011;41380;52.548;13.344;2022-07-29T01:02:06;5.30;;;4.20;;
9912;SDS011;41380;52.548;13.344;2022-07-29T01:04:32;5.88;;;4.40;;
9912;SDS011;41380;52.548;13.344;2022-07-29T01:07:00;7.53;;;4.80;;
9912;SDS011;41380;52.548;13.344;2022-07-29T01:09:27;4.90;;;4.25;;
9912;SDS011;41380;52.548;13.344;2022-07-29T01:11:55;7.65;;;4.47;;
9912;SDS011;41380;52.548;13.344;2022-07-29T01:14:26;5.43;;;4.40;;
9912;SDS011;41380;52.548;13.344;2022-07-29T01:16:56;6.00;;;3.92;;
9912;SDS011;41380;52.548;13.344;2022-07-29T01:19:33;5.78;;;4.35;;
9912;SDS011;41380;52.548;13.344;2022-07-29T01:22:18;5.93;;;4.20;;
9912;SDS011;41380;52.548;13.344;2022-07-29T01:28:08;7.05;;;4.47;;
9912;SDS011;41380;52.548;13.344;2022-07-29T01:30:51;7.22;;;4.13;;
9912;SDS011;41380;52.548;13.344;2022-07-29T01:33:19;5.20;;;4.70;;
9912;SDS011;41380;52.548;13.344;2022-07-29T01:36:07;6.82;;;4.47;;
9912;SDS011;41380;52.548;13.344;2022-07-29T01:38:39;6.80;;;4.68;;
9912;SDS011;41380;52.548;13.344;2022-07-29T01:41:09;6.20;;;4.47;;
9912;SDS011;41380;52.548;13.344;2022-07-29T01:43:41;6.47;;;4.95;;
9912;SDS011;41380;52.548;13.344;2022-07-29T01:46:13;7.60;;;5.25;;
9912;SDS011;41380;52.548;13.344;2022-07-29T01:48:47;7.45;;;4.47;;
9912;SDS011;41380;52.548;13.344;2022-07-29T01:51:19;5.82;;;3.95;;
9912;SDS011;41380;52.548;13.344;2022-07-29T01:53:53;6.80;;;4.55;;
9912;SDS011;41380;52.548;13.344;2022-07-29T01:56:24;6.55;;;4.50;;
9912;SDS011;41380;52.548;13.344;2022-07-29T01:58:55;5.93;;;3.92;;
9912;SDS011;41380;52.548;13.344;2022-07-29T02:01:26;6.15;;;4.13;;
9912;SDS011;41380;52.548;13.344;2022-07-29T02:03:55;7.43;;;4.90;;
9912;SDS011;41380;52.548;13.344;2022-07-29T02:06:23;7.68;;;4.25;;
9912;SDS011;41380;52.548;13.344;2022-07-29T02:08:52;7.75;;;4.47;;
9912;SDS011;41380;52.548;13.344;2022-07-29T02:11:22;7.05;;;4.78;;
9912;SDS011;41380;52.548;13.344;2022-07-29T02:13:50;6.15;;;4.65;;
9912;SDS011;41380;52.548;13.344;2022-07-29T02:16:21;6.32;;;4.20;;
9912;SDS011;41380;52.548;13.344;2022-07-29T02:18:50;8.93;;;4.53;;
9912;SDS011;41380;52.548;13.344;2022-07-29T02:21:21;6.28;;;4.57;;
9912;SDS011;41380;52.548;13.344;2022-07-29T02:23:50;5.65;;;4.13;;
9912;SDS011;41380;52.548;13.344;2022-07-29T02:26:20;7.97;;;4.25;;
9912;SDS011;41380;52.548;13.344;2022-07-29T02:28:49;5.72;;;4.15;;
9912;SDS011;41380;52.548;13.344;2022-07-29T02:31:18;5.80;;;3.90;;
9912;SDS011;41380;52.548;13.344;2022-07-29T02:33:47;6.88;;;4.45;;
9912;SDS011;41380;52.548;13.344;2022-07-29T02:36:17;4.28;;;3.65;;
9912;SDS011;41380;52.548;13.344;2022-07-29T02:38:48;7.22;;;4.20;;
9912;SDS011;41380;52.548;13.344;2022-07-29T02:41:26;7.20;;;4.50;;
9912;SDS011;41380;52.548;13.344;2022-07-29T02:43:55;5.45;;;4.13;;
9912;SDS011;41380;52.548;13.344;2022-07-29T02:46:26;5.53;;;4.20;;
9912;SDS011;41380;52.548;13.344;2022-07-29T02:49:00;7.97;;;3.90;;
9912;SDS011;41380;52.548;13.344;2022-07-29T02:51:33;6.30;;;4.38;;
9912;SDS011;41380;52.548;13.344;2022-07-29T02:54:08;5.25;;;4.05;;
9912;SDS011;41380;52.548;13.344;2022-07-29T02:56:36;4.07;;;3.55;;
9912;SDS011;41380;52.548;13.344;2022-07-29T02:59:07;8.20;;;4.28;;
9912;SDS011;41380;52.548;13.344;2022-07-29T03:01:39;7.70;;;3.80;;
9912;SDS011;41380;52.548;13.344;2022-07-29T03:04:11;7.15;;;4.18;;
9912;SDS011;41380;52.548;13.344;2022-07-29T03:06:40;8.23;;;4.63;;
9912;SDS011;41380;52.548;13.344;2022-07-29T03:09:10;7.20;;;4.15;;
9912;SDS011;41380;52.548;13.344;2022-07-29T03:11:39;7.93;;;4.13;;
9912;SDS011;41380;52.548;13.344;2022-07-29T03:14:08;5.90;;;3.80;;
9912;SDS011;41380;52.548;13.344;2022-07-29T03:16:35;4.93;;;3.72;;
9912;SDS011;41380;52.548;13.344;2022-07-29T03:19:03;6.43;;;3.75;;
9912;SDS011;41380;52.548;13.344;2022-07-29T03:21:33;5.10;;;3.88;;
9912;SDS011;41380;52.548;13.344;2022-07-29T03:24:00;6.75;;;4.00;;
9912;SDS011;41380;52.548;13.344;2022-07-29T03:26:27;10.32;;;3.72;;
9912;SDS011;41380;52.548;13.344;2022-07-29T03:28:54;5.55;;;3.42;;
9912;SDS011;41380;52.548;13.344;2022-07-29T03:31:21;4.05;;;3.65;;
9912;SDS011;41380;52.548;13.344;2022-07-29T03:33:48;5.07;;;3.90;;
9912;SDS011;41380;52.548;13.344;2022-07-29T03:36:15;5.68;;;3.50;;
9912;SDS011;41380;52.548;13.344;2022-07-29T03:38:43;6.78;;;4.18;;
9912;SDS011;41380;52.548;13.344;2022-07-29T03:41:12;7.45;;;4.03;;
9912;SDS011;41380;52.548;13.344;2022-07-29T03:43:40;5.47;;;3.60;;
9912;SDS011;41380;52.548;13.344;2022-07-29T03:46:09;7.10;;;4.22;;
9912;SDS011;41380;52.548;13.344;2022-07-29T03:48:39;5.65;;;3.55;;
9912;SDS011;41380;52.548;13.344;2022-07-29T03:51:10;3.80;;;3.35;;
9912;SDS011;41380;52.548;13.344;2022-07-29T03:53:37;5.45;;;3.53;;
9912;SDS011;41380;52.548;13.344;2022-07-29T03:56:05;7.85;;;3.83;;
9912;SDS011;41380;52.548;13.344;2022-07-29T03:58:34;6.30;;;3.80;;
9912;SDS011;41380;52.548;13.344;2022-07-29T04:01:02;5.45;;;4.00;;
9912;SDS011;41380;52.548;13.344;2022-07-29T04:03:29;4.15;;;3.70;;
9912;SDS011;41380;52.548;13.344;2022-07-29T04:06:00;6.80;;;3.40;;
9912;SDS011;41380;52.548;13.344;2022-07-29T04:08:28;5.78;;;3.60;;
9912;SDS011;41380;52.548;13.344;2022-07-29T04:10:55;9.13;;;4.07;;
9912;SDS011;41380;52.548;13.344;2022-07-29T04:13:23;5.88;;;3.83;;
9912;SDS011;41380;52.548;13.344;2022-07-29T04:15:50;5.47;;;4.03;;
9912;SDS011;41380;52.548;13.344;2022-07-29T04:18:17;5.93;;;4.40;;
9912;SDS011;41380;52.548;13.344;2022-07-29T04:20:44;5.35;;;3.90;;
9912;SDS011;41380;52.548;13.344;2022-07-29T04:23:11;8.60;;;4.38;;
9912;SDS011;41380;52.548;13.344;2022-07-29T04:25:38;7.10;;;3.80;;
9912;SDS011;41380;52.548;13.344;2022-07-29T04:28:06;8.00;;;3.83;;
9912;SDS011;41380;52.548;13.344;2022-07-29T04:30:35;5.63;;;3.80;;
9912;SDS011;41380;52.548;13.344;2022-07-29T04:33:03;5.05;;;3.63;;
9912;SDS011;41380;52.548;13.344;2022-07-29T04:35:33;5.93;;;3.55;;
9912;SDS011;41380;52.548;13.344;2022-07-29T04:38:01;4.22;;;3.42;;
9912;SDS011;41380;52.548;13.344;2022-07-29T04:40:28;5.07;;;3.53;;
9912;SDS011;41380;52.548;13.344;2022-07-29T04:42:55;4.85;;;3.60;;
9912;SDS011;41380;52.548;13.344;2022-07-29T04:45:22;5.13;;;3.80;;
9912;SDS011;41380;52.548;13.344;2022-07-29T04:47:50;6.78;;;3.72;;
9912;SDS011;41380;52.548;13.344;2022-07-29T04:50:19;4.78;;;3.80;;
9912;SDS011;41380;52.548;13.344;2022-07-29T04:52:47;5.20;;;3.70;;
9912;SDS011;41380;52.548;13.344;2022-07-29T04:55:15;6.45;;;3.80;;
9912;SDS011;41380;52.548;13.344;2022-07-29T04:57:42;7.43;;;3.70;;
9912;SDS011;41380;52.548;13.344;2022-07-29T05:00:09;5.00;;;4.28;;
9912;SDS011;41380;52.548;13.344;2022-07-29T05:02:36;8.20;;;3.58;;
9912;SDS011;41380;52.548;13.344;2022-07-29T05:05:05;6.22;;;3.72;;
9912;SDS011;41380;52.548;13.344;2022-07-29T05:07:33;5.95;;;3.30;;
9912;SDS011;41380;52.548;13.344;2022-07-29T05:10:00;5.72;;;3.75;;
9912;SDS011;41380;52.548;13.344;2022-07-29T05:12:27;5.60;;;3.70;;
9912;SDS011;41380;52.548;13.344;2022-07-29T05:14:54;8.38;;;3.70;;
9912;SDS011;41380;52.548;13.344;2022-07-29T05:17:21;6.85;;;3.70;;
9912;SDS011;41380;52.548;13.344;2022-07-29T05:19:48;6.30;;;3.47;;
9912;SDS011;41380;52.548;13.344;2022-07-29T05:22:17;6.03;;;3.72;;
9912;SDS011;41380;52.548;13.344;2022-07-29T05:24:44;5.80;;;3.80;;
9912;SDS011;41380;52.548;13.344;2022-07-29T05:27:11;6.40;;;3.60;;
9912;SDS011;41380;52.548;13.344;2022-07-29T05:29:39;5.60;;;3.20;;
9912;SDS011;41380;52.548;13.344;2022-07-29T05:32:08;5.93;;;3.20;;
9912;SDS011;41380;52.548;13.344;2022-07-29T05:34:35;5.55;;;3.33;;
9912;SDS011;41380;52.548;13.344;2022-07-29T05:37:04;5.93;;;3.60;;
9912;SDS011;41380;52.548;13.344;2022-07-29T05:39:32;4.05;;;3.30;;
9912;SDS011;41380;52.548;13.344;2022-07-29T05:41:59;6.07;;;3.63;;
9912;SDS011;41380;52.548;13.344;2022-07-29T05:44:26;7.05;;;3.70;;
9912;SDS011;41380;52.548;13.344;2022-07-29T05:46:53;5.25;;;3.78;;
9912;SDS011;41380;52.548;13.344;2022-07-29T05:49:20;4.68;;;3.80;;
9912;SDS011;41380;52.548;13.344;2022-07-29T05:51:47;4.88;;;3.55;;
9912;SDS011;41380;52.548;13.344;2022-07-29T05:54:14;8.77;;;4.45;;
9912;SDS011;41380;52.548;13.344;2022-07-29T05:56:42;6.15;;;4.00;;
9912;SDS011;41380;52.548;13.344;2022-07-29T05:59:09;7.03;;;4.15;;
9912;SDS011;41380;52.548;13.344;2022-07-29T06:01:36;6.53;;;3.78;;
9912;SDS011;41380;52.548;13.344;2022-07-29T06:04:04;5.82;;;4.07;;
9912;SDS011;41380;52.548;13.344;2022-07-29T06:06:32;4.00;;;3.38;;
9912;SDS011;41380;52.548;13.344;2022-07-29T06:08:59;6.35;;;4.13;;
9912;SDS011;41380;52.548;13.344;2022-07-29T06:11:26;7.25;;;3.63;;
9912;SDS011;41380;52.548;13.344;2022-07-29T06:13:54;7.93;;;4.10;;
9912;SDS011;41380;52.548;13.344;2022-07-29T06:16:21;10.43;;;3.60;;
9912;SDS011;41380;52.548;13.344;2022-07-29T06:18:48;4.68;;;3.60;;
9912;SDS011;41380;52.548;13.344;2022-07-29T06:21:15;5.68;;;3.88;;
9912;SDS011;41380;52.548;13.344;2022-07-29T06:23:42;7.40;;;3.50;;
9912;SDS011;41380;52.548;13.344;2022-07-29T06:26:10;5.25;;;3.38;;
9912;SDS011;41380;52.548;13.344;2022-07-29T06:28:37;7.63;;;3.72;;
9912;SDS011;41380;52.548;13.344;2022-07-29T06:31:06;7.22;;;3.40;;
9912;SDS011;41380;52.548;13.344;2022-07-29T06:33:33;5.03;;;3.38;;
9912;SDS011;41380;52.548;13.344;2022-07-29T06:36:00;4.93;;;4.05;;
9912;SDS011;41380;52.548;13.344;2022-07-29T06:38:29;9.70;;;3.70;;
9912;SDS011;41380;52.548;13.344;2022-07-29T06:40:56;5.88;;;3.65;;
9912;SDS011;41380;52.548;13.344;2022-07-29T06:43:33;7.07;;;3.53;;
9912;SDS011;41380;52.548;13.344;2022-07-29T06:46:03;6.55;;;3.45;;
9912;SDS011;41380;52.548;13.344;2022-07-29T06:48:33;7.45;;;3.65;;
9912;SDS011;41380;52.548;13.344;2022-07-29T06:51:02;4.93;;;3.63;;
9912;SDS011;41380;52.548;13.344;2022-07-29T06:53:30;5.07;;;3.80;;
9912;SDS011;41380;52.548;13.344;2022-07-29T06:55:57;5.47;;;3.88;;
9912;SDS011;41380;52.548;13.344;2022-07-29T06:58:25;6.75;;;3.35;;
9912;SDS011;41380;52.548;13.344;2022-07-29T07:00:53;9.45;;;4.30;;
9912;SDS011;41380;52.548;13.344;2022-07-29T07:03:22;6.75;;;4.18;;
9912;SDS011;41380;52.548;13.344;2022-07-29T07:05:51;7.05;;;3.63;;
9912;SDS011;41380;52.548;13.344;2022-07-29T07:08:19;6.10;;;3.22;;
9912;SDS011;41380;52.548;13.344;2022-07-29T07:10:47;8.65;;;4.07;;
9912;SDS011;41380;52.548;13.344;2022-07-29T07:13:15;11.15;;;3.83;;
9912;SDS011;41380;52.548;13.344;2022-07-29T07:15:42;7.78;;;3.47;;
9912;SDS011;41380;52.548;13.344;2022-07-29T07:18:10;6.80;;;3.38;;
9912;SDS011;41380;52.548;13.344;2022-07-29T07:20:39;6.90;;;3.35;;
9912;SDS011;41380;52.548;13.344;2022-07-29T07:23:06;5.65;;;3.40;;
9912;SDS011;41380;52.548;13.344;2022-07-29T07:25:33;4.28;;;3.30;;
9912;SDS011;41380;52.548;13.344;2022-07-29T07:28:00;9.52;;;3.78;;
9912;SDS011;41380;52.548;13.344;2022-07-29T07:30:28;6.80;;;3.50;;
9912;SDS011;41380;52.548;13.344;2022-07-29T07:32:55;5.97;;;3.33;;
9912;SDS011;41380;52.548;13.344;2022-07-29T07:35:23;8.60;;;3.75;;
9912;SDS011;41380;52.548;13.344;2022-07-29T07:37:51;4.15;;;3.30;;
9912;SDS011;41380;52.548;13.344;2022-07-29T07:40:18;5.35;;;3.35;;
9912;SDS011;41380;52.548;13.344;2022-07-29T07:42:45;7.15;;;3.40;;
9912;SDS011;41380;52.548;13.344;2022-07-29T07:45:12;4.25;;;3.03;;
9912;SDS011;41380;52.548;13.344;2022-07-29T07:47:39;7.60;;;3.83;;
9912;SDS011;41380;52.548;13.344;2022-07-29T07:50:07;4.55;;;2.90;;
9912;SDS011;41380;52.548;13.344;2022-07-29T07:52:37;5.65;;;2.97;;
9912;SDS011;41380;52.548;13.344;2022-07-29T07:55:14;4.18;;;3.00;;
9912;SDS011;41380;52.548;13.344;2022-07-29T07:57:43;5.60;;;2.80;;
9912;SDS011;41380;52.548;13.344;2022-07-29T08:00:11;7.13;;;3.15;;
9912;SDS011;41380;52.548;13.344;2022-07-29T08:02:40;5.43;;;2.85;;
9912;SDS011;41380;52.548;13.344;2022-07-29T08:05:08;8.90;;;3.08;;
9912;SDS011;41380;52.548;13.344;2022-07-29T08:07:36;5.63;;;3.20;;
9912;SDS011;41380;52.548;13.344;2022-07-29T08:10:04;4.32;;;3.17;;
9912;SDS011;41380;52.548;13.344;2022-07-29T08:12:33;5.47;;;2.70;;
9912;SDS011;41380;52.548;13.344;2022-07-29T08:15:01;5.32;;;3.05;;
9912;SDS011;41380;52.548;13.344;2022-07-29T08:17:29;7.03;;;3.30;;
9912;SDS011;41380;52.548;13.344;2022-07-29T08:19:56;5.40;;;3.08;;
9912;SDS011;41380;52.548;13.344;2022-07-29T08:22:22;4.13;;;2.92;;
9912;SDS011;41380;52.548;13.344;2022-07-29T08:24:50;4.38;;;2.70;;
9912;SDS011;41380;52.548;13.344;2022-07-29T08:27:20;5.25;;;2.75;;
9912;SDS011;41380;52.548;13.344;2022-07-29T08:29:49;7.20;;;2.95;;
9912;SDS011;41380;52.548;13.344;2022-07-29T08:32:18;4.32;;;2.58;;
9912;SDS011;41380;52.548;13.344;2022-07-29T08:34:45;4.43;;;2.63;;
9912;SDS011;41380;52.548;13.344;2022-07-29T08:37:12;4.65;;;3.00;;
9912;SDS011;41380;52.548;13.344;2022-07-29T08:39:39;5.13;;;2.80;;
9912;SDS011;41380;52.548;13.344;2022-07-29T08:42:06;5.03;;;2.60;;
9912;SDS011;41380;52.548;13.344;2022-07-29T08:44:34;5.60;;;2.72;;
9912;SDS011;41380;52.548;13.344;2022-07-29T08:47:04;4.50;;;2.50;;
9912;SDS011;41380;52.548;13.344;2022-07-29T08:49:33;3.45;;;2.30;;
9912;SDS011;41380;52.548;13.344;2022-07-29T08:52:02;5.53;;;2.70;;
9912;SDS011;41380;52.548;13.344;2022-07-29T08:54:29;4.57;;;2.58;;
9912;SDS011;41380;52.548;13.344;2022-07-29T08:56:56;4.50;;;2.72;;
9912;SDS011;41380;52.548;13.344;2022-07-29T08:59:24;5.40;;;2.60;;
9912;SDS011;41380;52.548;13.344;2022-07-29T09:01:53;4.22;;;2.22;;
9912;SDS011;41380;52.548;13.344;2022-07-29T09:04:22;3.60;;;2.45;;
9912;SDS011;41380;52.548;13.344;2022-07-29T09:06:51;4.90;;;2.58;;
9912;SDS011;41380;52.548;13.344;2022-07-29T09:09:22;4.75;;;2.40;;
9912;SDS011;41380;52.548;13.344;2022-07-29T09:11:48;3.88;;;2.33;;
9912;SDS011;41380;52.548;13.344;2022-07-29T09:14:16;5.00;;;2.55;;
9912;SDS011;41380;52.548;13.344;2022-07-29T09:16:46;3.47;;;2.50;;
9912;SDS011;41380;52.548;13.344;2022-07-29T09:19:24;3.80;;;2.53;;
9912;SDS011;41380;52.548;13.344;2022-07-29T09:21:53;3.50;;;2.33;;
9912;SDS011;41380;52.548;13.344;2022-07-29T09:24:23;5.32;;;2.70;;
9912;SDS011;41380;52.548;13.344;2022-07-29T09:26:52;5.70;;;2.33;;
9912;SDS011;41380;52.548;13.344;2022-07-29T09:29:21;8.52;;;3.70;;
9912;SDS011;41380;52.548;13.344;2022-07-29T09:31:50;7.65;;;2.97;;
9912;SDS011;41380;52.548;13.344;2022-07-29T09:34:21;7.00;;;3.30;;
9912;SDS011;41380;52.548;13.344;2022-07-29T09:36:51;4.05;;;2.53;;
9912;SDS011;41380;52.548;13.344;2022-07-29T09:39:29;6.35;;;2.63;;
9912;SDS011;41380;52.548;13.344;2022-07-29T09:42:02;5.93;;;2.63;;
9912;SDS011;41380;52.548;13.344;2022-07-29T09:47:14;5.25;;;2.50;;
9912;SDS011;41380;52.548;13.344;2022-07-29T09:49:50;5.35;;;2.35;;
9912;SDS011;41380;52.548;13.344;2022-07-29T09:52:20;7.38;;;2.67;;
9912;SDS011;41380;52.548;13.344;2022-07-29T09:54:48;4.63;;;2.95;;
9912;SDS011;41380;52.548;13.344;2022-07-29T09:57:22;4.68;;;2.53;;
9912;SDS011;41380;52.548;13.344;2022-07-29T09:59:58;2.80;;;2.28;;
9912;SDS011;41380;52.548;13.344;2022-07-29T10:02:29;4.20;;;2.60;;
9912;SDS011;41380;52.548;13.344;2022-07-29T10:04:57;4.70;;;2.30;;
9912;SDS011;41380;52.548;13.344;2022-07-29T10:07:25;6.38;;;2.50;;
9912;SDS011;41380;52.548;13.344;2022-07-29T10:09:53;5.00;;;2.65;;
9912;SDS011;41380;52.548;13.344;2022-07-29T10:12:22;5.50;;;2.45;;
9912;SDS011;41380;52.548;13.344;2022-07-29T10:14:50;5.95;;;2.53;;
9912;SDS011;41380;52.548;13.344;2022-07-29T10:17:17;4.13;;;2.42;;
9912;SDS011;41380;52.548;13.344;2022-07-29T10:19:45;4.43;;;2.10;;
9912;SDS011;41380;52.548;13.344;2022-07-29T10:22:15;6.13;;;2.28;;
9912;SDS011;41380;52.548;13.344;2022-07-29T10:24:43;3.35;;;2.17;;
9912;SDS011;41380;52.548;13.344;2022-07-29T10:27:11;3.40;;;2.30;;
9912;SDS011;41380;52.548;13.344;2022-07-29T10:29:37;6.20;;;2.45;;
9912;SDS011;41380;52.548;13.344;2022-07-29T10:32:22;3.83;;;2.25;;
9912;SDS011;41380;52.548;13.344;2022-07-29T10:35:14;3.42;;;2.40;;
9912;SDS011;41380;52.548;13.344;2022-07-29T10:37:52;4.55;;;2.55;;
9912;SDS011;41380;52.548;13.344;2022-07-29T10:40:44;4.05;;;2.30;;
9912;SDS011;41380;52.548;13.344;2022-07-29T10:43:34;3.67;;;2.45;;
9912;SDS011;41380;52.548;13.344;2022-07-29T10:46:06;3.50;;;2.08;;
9912;SDS011;41380;52.548;13.344;2022-07-29T10:48:36;4.53;;;2.50;;
9912;SDS011;41380;52.548;13.344;2022-07-29T10:51:53;4.60;;;2.10;;
9912;SDS011;41380;52.548;13.344;2022-07-29T10:54:36;3.33;;;2.90;;
9912;SDS011;41380;52.548;13.344;2022-07-29T10:57:15;4.05;;;2.47;;
9912;SDS011;41380;52.548;13.344;2022-07-29T11:02:50;3.42;;;3.13;;
9912;SDS011;41380;52.548;13.344;2022-07-29T11:05:20;3.28;;;2.33;;
9912;SDS011;41380;52.548;13.344;2022-07-29T11:10:45;2.53;;;2.25;;
9912;SDS011;41380;52.548;13.344;2022-07-29T11:13:13;4.07;;;2.28;;
9912;SDS011;41380;52.548;13.344;2022-07-29T11:16:17;5.13;;;2.58;;
9912;SDS011;41380;52.548;13.344;2022-07-29T11:21:46;3.92;;;2.75;;
9912;SDS011;41380;52.548;13.344;2022-07-29T11:24:15;6.88;;;2.80;;
9912;SDS011;41380;52.548;13.344;2022-07-29T11:26:45;2.80;;;2.20;;
9912;SDS011;41380;52.548;13.344;2022-07-29T11:29:49;4.07;;;2.58;;
9912;SDS011;41380;52.548;13.344;2022-07-29T11:32:17;3.30;;;2.40;;
9912;SDS011;41380;52.548;13.344;2022-07-29T11:34:46;5.38;;;3.05;;
9912;SDS011;41380;52.548;13.344;2022-07-29T11:37:18;3.58;;;2.47;;
9912;SDS011;41380;52.548;13.344;2022-07-29T11:39:47;5.55;;;2.75;;
9912;SDS011;41380;52.548;13.344;2022-07-29T11:42:44;6.05;;;2.80;;
9912;SDS011;41380;52.548;13.344;2022-07-29T11:45:20;2.63;;;2.40;;
9912;SDS011;41380;52.548;13.344;2022-07-29T11:47:52;3.13;;;2.78;;
9912;SDS011;41380;52.548;13.344;2022-07-29T11:50:27;4.07;;;2.55;;
9912;SDS011;41380;52.548;13.344;2022-07-29T11:52:57;4.28;;;2.72;;
9912;SDS011;41380;52.548;13.344;2022-07-29T11:55:25;3.92;;;2.63;;
9912;SDS011;41380;52.548;13.344;2022-07-29T11:57:52;4.32;;;2.90;;
9912;SDS011;41380;52.548;13.344;2022-07-29T12:00:23;5.35;;;2.97;;
9912;SDS011;41380;52.548;13.344;2022-07-29T12:02:52;4.38;;;2.45;;
9912;SDS011;41380;52.548;13.344;2022-07-29T12:05:19;3.10;;;2.80;;
9912;SDS011;41380;52.548;13.344;2022-07-29T12:07:47;4.57;;;2.92;;
9912;SDS011;41380;52.548;13.344;2022-07-29T12:10:14;3.65;;;2.75;;
9912;SDS011;41380;52.548;13.344;2022-07-29T12:12:41;3.20;;;2.85;;
9912;SDS011;41380;52.548;13.344;2022-07-29T12:15:12;4.47;;;3.15;;
9912;SDS011;41380;52.548;13.344;2022-07-29T12:17:43;4.30;;;2.90;;
9912;SDS011;41380;52.548;13.344;2022-07-29T12:20:10;3.97;;;2.78;;
9912;SDS011;41380;52.548;13.344;2022-07-29T12:22:38;3.45;;;2.58;;
9912;SDS011;41380;52.548;13.344;2022-07-29T12:25:11;8.40;;;3.45;;
9912;SDS011;41380;52.548;13.344;2022-07-29T12:27:41;4.40;;;3.15;;
9912;SDS011;41380;52.548;13.344;2022-07-29T12:30:09;6.32;;;3.22;;
9912;SDS011;41380;52.548;13.344;2022-07-29T12:32:38;3.85;;;3.50;;
9912;SDS011;41380;52.548;13.344;2022-07-29T12:35:10;5.47;;;3.20;;
9912;SDS011;41380;52.548;13.344;2022-07-29T12:37:40;4.82;;;2.85;;
9912;SDS011;41380;52.548;13.344;2022-07-29T12:40:11;5.50;;;3.20;;
9912;SDS011;41380;52.548;13.344;2022-07-29T12:42:40;5.35;;;3.17;;
9912;SDS011;41380;52.548;13.344;2022-07-29T12:45:08;7.80;;;3.67;;
9912;SDS011;41380;52.548;13.344;2022-07-29T12:47:50;3.97;;;3.50;;
9912;SDS011;41380;52.548;13.344;2022-07-29T12:50:21;4.90;;;3.13;;
9912;SDS011;41380;52.548;13.344;2022-07-29T12:52:47;3.75;;;3.30;;
9912;SDS011;41380;52.548;13.344;2022-07-29T12:55:15;6.45;;;3.30;;
9912;SDS011;41380;52.548;13.344;2022-07-29T12:57:45;4.13;;;3.03;;
9912;SDS011;41380;52.548;13.344;2022-07-29T13:00:15;5.43;;;2.97;;
9912;SDS011;41380;52.548;13.344;2022-07-29T13:02:43;6.07;;;3.78;;
9912;SDS011;41380;52.548;13.344;2022-07-29T13:05:10;3.28;;;2.97;;
9912;SDS011;41380;52.548;13.344;2022-07-29T13:07:39;5.90;;;3.00;;
9912;SDS011;41380;52.548;13.344;2022-07-29T13:10:14;3.83;;;3.33;;
9912;SDS011;41380;52.548;13.344;2022-07-29T13:15:27;4.00;;;3.33;;
9912;SDS011;41380;52.548;13.344;2022-07-29T13:17:55;6.57;;;3.08;;
9912;SDS011;41380;52.548;13.344;2022-07-29T13:20:23;4.03;;;3.15;;
9912;SDS011;41380;52.548;13.344;2022-07-29T13:22:53;5.25;;;3.10;;
9912;SDS011;41380;52.548;13.344;2022-07-29T13:25:24;4.28;;;3.30;;
9912;SDS011;41380;52.548;13.344;2022-07-29T13:27:52;6.85;;;3.20;;
9912;SDS011;41380;52.548;13.344;2022-07-29T13:30:21;5.68;;;3.22;;
9912;SDS011;41380;52.548;13.344;2022-07-29T13:32:49;4.70;;;2.97;;
9912;SDS011;41380;52.548;13.344;2022-07-29T13:35:18;4.28;;;3.28;;
9912;SDS011;41380;52.548;13.344;2022-07-29T13:37:45;4.30;;;3.10;;
9912;SDS011;41380;52.548;13.344;2022-07-29T13:40:14;5.05;;;3.00;;
9912;SDS011;41380;52.548;13.344;2022-07-29T13:42:41;5.57;;;2.72;;
9912;SDS011;41380;52.548;13.344;2022-07-29T13:45:08;4.03;;;2.97;;
9912;SDS011;41380;52.548;13.344;2022-07-29T13:47:36;5.05;;;2.95;;
9912;SDS011;41380;52.548;13.344;2022-07-29T13:50:06;6.03;;;3.40;;
9912;SDS011;41380;52.548;13.344;2022-07-29T13:52:35;5.43;;;3.47;;
9912;SDS011;41380;52.548;13.344;2022-07-29T13:55:02;5.13;;;3.08;;
9912;SDS011;41380;52.548;13.344;2022-07-29T13:57:32;3.50;;;3.17;;
9912;SDS011;41380;52.548;13.344;2022-07-29T13:59:59;5.28;;;3.35;;
9912;SDS011;41380;52.548;13.344;2022-07-29T14:02:25;6.10;;;3.15;;
9912;SDS011;41380;52.548;13.344;2022-07-29T14:04:53;5.97;;;3.20;;
9912;SDS011;41380;52.548;13.344;2022-07-29T14:07:20;6.55;;;3.30;;
9912;SDS011;41380;52.548;13.344;2022-07-29T14:09:48;4.50;;;3.40;;
9912;SDS011;41380;52.548;13.344;2022-07-29T14:12:15;5.63;;;3.30;;
9912;SDS011;41380;52.548;13.344;2022-07-29T14:14:43;4.22;;;2.95;;
9912;SDS011;41380;52.548;13.344;2022-07-29T14:17:10;4.18;;;3.40;;
9912;SDS011;41380;52.548;13.344;2022-07-29T14:19:37;6.10;;;3.30;;
9912;SDS011;41380;52.548;13.344;2022-07-29T14:22:04;4.18;;;3.17;;
9912;SDS011;41380;52.548;13.344;2022-07-29T14:24:32;4.85;;;3.50;;
9912;SDS011;41380;52.548;13.344;2022-07-29T14:26:59;4.57;;;3.78;;
9912;SDS011;41380;52.548;13.344;2022-07-29T14:29:27;6.00;;;3.40;;
9912;SDS011;41380;52.548;13.344;2022-07-29T14:31:56;6.80;;;3.80;;
9912;SDS011;41380;52.548;13.344;2022-07-29T14:34:23;4.25;;;3.15;;
9912;SDS011;41380;52.548;13.344;2022-07-29T14:36:50;4.07;;;3.15;;
9912;SDS011;41380;52.548;13.344;2022-07-29T14:39:20;6.70;;;3.78;;
9912;SDS011;41380;52.548;13.344;2022-07-29T14:41:49;7.93;;;3.75;;
9912;SDS011;41380;52.548;13.344;2022-07-29T14:44:18;6.05;;;3.17;;
9912;SDS011;41380;52.548;13.344;2022-07-29T14:46:45;4.90;;;3.60;;
9912;SDS011;41380;52.548;13.344;2022-07-29T14:49:13;5.50;;;3.58;;
9912;SDS011;41380;52.548;13.344;2022-07-29T14:51:40;4.97;;;3.10;;
9912;SDS011;41380;52.548;13.344;2022-07-29T14:54:08;4.13;;;3.67;;
9912;SDS011;41380;52.548;13.344;2022-07-29T14:56:35;3.63;;;3.33;;
9912;SDS011;41380;52.548;13.344;2022-07-29T14:59:02;5.28;;;3.20;;
9912;SDS011;41380;52.548;13.344;2022-07-29T15:01:29;8.48;;;3.40;;
9912;SDS011;41380;52.548;13.344;2022-07-29T15:03:56;3.92;;;3.53;;
9912;SDS011;41380;52.548;13.344;2022-07-29T15:06:24;3.85;;;3.45;;
9912;SDS011;41380;52.548;13.344;2022-07-29T15:08:51;3.83;;;3.20;;
9912;SDS011;41380;52.548;13.344;2022-07-29T15:11:18;4.78;;;3.28;;
9912;SDS011;41380;52.548;13.344;2022-07-29T15:13:46;3.83;;;3.15;;
9912;SDS011;41380;52.548;13.344;2022-07-29T15:16:13;4.75;;;3.30;;
9912;SDS011;41380;52.548;13.344;2022-07-29T15:18:40;4.18;;;3.00;;